KSTL/STL METAR and TAF weather

Enter ICAO airport designator
Station Type Date Time Source
KSTL METAR 2019/02/16 17:51 UTC NOAA

KSTL 161751Z 07003KT 10SM BKN250 M03/M09 A3005 RMK AO2 SLP190 4/001 T10331089 11033 21094 56016


Station Type Date Time Source
KSTL Decoded METAR 2019/02/16 17:51 UTC NOAA

LAMBERT-ST LOUIS INTERNATIONAL AIRPORT , MO, United States (KSTL) 38-45N 90-22W 171M
Feb 16, 2019 - 12:51 PM EST / 2019.02.16 1751 UTC
Wind: from the ENE (070 degrees) at 3 MPH (3 KT):0
Visibility: 10 mile(s):0
Sky conditions: mostly cloudy
Weather: 1 inches of snow on ground
Temperature: 26.1 F (-3.3 C)
Dew Point: 16.0 F (-8.9 C)
Relative Humidity: 65%
Pressure (altimeter): 30.05 in. Hg (1017 hPa)
Pressure tendency: 0.05 inches (1.6 hPa) lower than three hours ago
ob: KSTL 161751Z 07003KT 10SM BKN250 M03/M09 A3005 RMK AO2 SLP190 4/001 T10331089 11033 21094 56016
cycle: 18

Station Type Date Time Source
KSTL TAF 2019/02/16 18:42 UTC NOAA

TAF KSTL 161739Z 1618/1724 07005KT P6SM BKN250
FM170200 10007KT P6SM BKN250
FM170300 11007KT P6SM VCSH BKN100
FM170600 11006KT 6SM -SN OVC035
FM170800 11006KT 4SM -FZDZSN BR OVC018
FM171100 VRB04KT 2SM -FZDZSN BR OVC008
FM171400 VRB03KT 2SM BR VCSH OVC008
FM171900 26005KT P6SM VCSH BKN012


Example: see airport list